createdAt,value
2017-08-24T00:00:36.750Z,56.95
2017-08-24T00:03:08.089Z,57.12
2017-08-24T00:05:39.409Z,57.46
2017-08-24T00:08:11.241Z,57.52
2017-08-24T00:10:42.574Z,57.65
2017-08-24T00:13:13.937Z,57.83
2017-08-24T00:15:45.692Z,58.13
2017-08-24T00:18:17.620Z,58.32
2017-08-24T00:20:49.421Z,58.38
2017-08-24T00:23:21.241Z,58.49
2017-08-24T00:25:52.935Z,58.55
2017-08-24T00:28:26.028Z,58.51
2017-08-24T00:30:57.408Z,58.58
2017-08-24T00:33:28.763Z,58.70
2017-08-24T00:36:00.589Z,58.61
2017-08-24T00:38:31.942Z,58.51
2017-08-24T00:41:03.715Z,58.73
2017-08-24T00:43:35.078Z,58.74
2017-08-24T00:46:06.402Z,59.12
2017-08-24T00:48:38.223Z,59.39
2017-08-24T00:51:09.589Z,59.65
2017-08-24T00:53:41.241Z,60.10
2017-08-24T00:56:12.918Z,60.38
2017-08-24T00:58:44.940Z,60.76
2017-08-24T01:01:16.344Z,60.63
2017-08-24T01:03:47.687Z,60.39
2017-08-24T01:06:19.107Z,60.54
2017-08-24T01:08:50.933Z,60.72
2017-08-24T01:11:22.433Z,61.16
2017-08-24T01:13:54.028Z,61.76
2017-08-24T01:16:27.098Z,61.96
2017-08-24T01:18:58.465Z,62.47
2017-08-24T01:21:29.841Z,62.62
2017-08-24T01:24:01.359Z,62.86
2017-08-24T01:26:32.724Z,62.69
2017-08-24T01:29:04.623Z,62.72
2017-08-24T01:31:36.935Z,62.57
2017-08-24T01:34:08.289Z,62.23
2017-08-24T01:36:40.089Z,61.88
2017-08-24T01:39:11.400Z,61.70
2017-08-24T01:41:42.713Z,61.49
2017-08-24T01:44:15.046Z,61.39
2017-08-24T01:46:55.012Z,61.24
2017-08-24T01:49:27.406Z,61.31
2017-08-24T01:51:58.714Z,61.56
2017-08-24T01:54:31.256Z,61.55
2017-08-24T01:57:03.316Z,61.78
2017-08-24T01:59:34.652Z,61.92
2017-08-24T02:02:06.027Z,61.92
2017-08-24T02:04:37.339Z,61.80
2017-08-24T02:07:08.653Z,61.66
2017-08-24T02:09:40.338Z,61.59
2017-08-24T02:12:11.920Z,61.55
2017-08-24T02:14:43.242Z,61.51
2017-08-24T02:17:14.956Z,61.39
2017-08-24T02:19:46.412Z,61.67
2017-08-24T02:22:17.750Z,61.88
2017-08-24T02:24:49.095Z,61.95
2017-08-24T02:27:20.401Z,61.88
2017-08-24T02:29:52.236Z,61.71
2017-08-24T02:32:23.895Z,61.08
2017-08-24T02:34:55.369Z,61.18
2017-08-24T02:37:27.601Z,61.12
2017-08-24T02:39:58.900Z,61.17
2017-08-24T02:42:31.615Z,61.12
2017-08-24T02:45:04.583Z,61.49
2017-08-24T02:47:36.119Z,62.22
2017-08-24T02:50:07.441Z,62.14
2017-08-24T02:52:39.367Z,62.27
2017-08-24T02:55:11.661Z,62.49
2017-08-24T02:57:43.288Z,62.77
2017-08-24T03:00:14.656Z,63.00
2017-08-24T03:02:45.952Z,63.03
2017-08-24T03:05:17.657Z,63.51
2017-08-24T03:07:48.965Z,63.88
2017-08-24T03:10:20.322Z,64.04
2017-08-24T03:12:52.082Z,64.00
2017-08-24T03:15:24.021Z,63.93
2017-08-24T03:17:55.675Z,64.08
2017-08-24T03:20:28.269Z,64.19
2017-08-24T03:22:59.613Z,64.56
2017-08-24T03:25:31.324Z,64.61
2017-08-24T03:28:03.903Z,64.74
2017-08-24T03:30:35.204Z,65.15
2017-08-24T03:33:06.967Z,65.21
2017-08-24T03:36:40.528Z,65.45
2017-08-24T03:39:12.333Z,65.45
2017-08-24T03:41:43.635Z,66.02
2017-08-24T03:44:14.939Z,66.18
2017-08-24T03:46:46.604Z,66.25
2017-08-24T03:49:17.923Z,66.47
2017-08-24T03:51:49.526Z,66.81
2017-08-24T03:54:20.874Z,67.00
2017-08-24T03:56:52.226Z,67.40
2017-08-24T03:59:24.908Z,67.46
2017-08-24T04:01:56.245Z,67.52
2017-08-24T04:04:28.572Z,67.88
2017-08-24T04:07:00.335Z,68.26
2017-08-24T04:09:31.651Z,68.37
2017-08-24T04:12:04.183Z,68.89
2017-08-24T04:14:35.528Z,68.71
2017-08-24T04:17:06.849Z,68.66
2017-08-24T04:19:38.602Z,69.18
2017-08-24T04:22:09.960Z,69.51
2017-08-24T04:24:41.295Z,69.90
2017-08-24T04:27:12.996Z,69.98
2017-08-24T04:29:44.326Z,69.65
2017-08-24T04:32:15.765Z,69.63
2017-08-24T04:34:47.200Z,69.43
2017-08-24T04:37:18.484Z,69.76
2017-08-24T04:39:50.177Z,69.63
2017-08-24T04:42:21.538Z,69.78
2017-08-24T04:44:52.842Z,69.72
2017-08-24T04:47:25.462Z,69.56
2017-08-24T04:49:56.892Z,69.54
2017-08-24T04:52:28.207Z,69.75
2017-08-24T04:54:59.504Z,69.46
2017-08-24T04:57:31.330Z,69.36
2017-08-24T05:00:04.018Z,69.21
2017-08-24T05:02:35.396Z,69.25
2017-08-24T05:05:06.737Z,69.19
2017-08-24T05:07:38.514Z,69.28
2017-08-24T05:10:09.831Z,69.66
2017-08-24T05:12:41.178Z,69.46
2017-08-24T05:15:12.568Z,69.72
2017-08-24T05:17:43.885Z,69.85
2017-08-24T05:20:16.651Z,69.86
2017-08-24T05:22:48.235Z,70.10
2017-08-24T05:25:19.580Z,70.20
2017-08-24T05:27:51.573Z,70.24
2017-08-24T05:30:23.934Z,70.13
2017-08-24T05:32:55.307Z,70.01
2017-08-24T05:35:27.638Z,69.82
2017-08-24T05:38:04.307Z,70.22
2017-08-24T05:40:40.734Z,70.23
2017-08-24T05:43:12.240Z,70.05
2017-08-24T05:45:43.540Z,69.97
2017-08-24T05:48:15.278Z,69.70
2017-08-24T05:50:46.587Z,69.73
2017-08-24T05:53:17.904Z,69.51
2017-08-24T05:55:49.256Z,69.17
2017-08-24T05:58:20.582Z,69.08
2017-08-24T06:00:52.471Z,68.65
2017-08-24T06:03:24.945Z,68.25
2017-08-24T06:05:56.361Z,68.17
2017-08-24T06:08:29.501Z,67.66
2017-08-24T06:11:01.063Z,67.16
2017-08-24T06:13:32.690Z,66.76
2017-08-24T06:16:04.874Z,66.76
2017-08-24T06:18:36.354Z,66.61
2017-08-24T06:23:38.375Z,66.05
2017-08-24T06:26:09.783Z,66.12
2017-08-24T06:28:41.417Z,65.96
2017-08-24T06:31:12.756Z,65.76
2017-08-24T06:33:44.535Z,65.37
2017-08-24T06:36:16.000Z,65.11
2017-08-24T06:38:47.453Z,65.13
2017-08-24T06:41:19.192Z,64.76
2017-08-24T06:43:50.496Z,64.08
2017-08-24T06:46:22.209Z,63.43
2017-08-24T06:48:53.883Z,63.30
2017-08-24T06:51:26.454Z,62.69
2017-08-24T06:53:58.264Z,62.35
2017-08-24T06:56:30.069Z,61.07
2017-08-24T06:59:01.820Z,60.16
2017-08-24T07:01:33.713Z,59.59
2017-08-24T07:04:06.087Z,59.08
2017-08-24T07:06:37.663Z,58.40
2017-08-24T07:09:09.243Z,57.81
2017-08-24T07:11:40.554Z,56.97
2017-08-24T07:14:12.261Z,56.51
2017-08-24T07:16:44.183Z,55.98
2017-08-24T07:19:15.681Z,55.15
2017-08-24T07:21:47.543Z,54.20
2017-08-24T07:24:19.079Z,53.64
2017-08-24T07:26:50.700Z,52.83
2017-08-24T07:29:22.791Z,52.87
2017-08-24T07:31:54.255Z,52.37
2017-08-24T07:34:27.399Z,53.30
2017-08-24T07:36:58.840Z,51.26
2017-08-24T07:39:30.734Z,51.10
2017-08-24T07:42:02.545Z,51.13
2017-08-24T07:44:34.026Z,50.97
2017-08-24T07:47:05.636Z,51.06
2017-08-24T07:49:37.333Z,51.24
2017-08-24T07:52:08.745Z,50.63
2017-08-24T07:54:40.410Z,49.71
2017-08-24T07:57:11.736Z,48.57
2017-08-24T07:59:43.389Z,49.47
2017-08-24T08:02:14.822Z,49.44
2017-08-24T08:04:46.127Z,49.09
2017-08-24T08:07:18.984Z,49.10
2017-08-24T08:09:51.216Z,48.99
2017-08-24T08:12:23.206Z,48.89
2017-08-24T08:14:54.982Z,48.54
2017-08-24T08:17:27.544Z,48.13
2017-08-24T08:19:58.878Z,47.71
2017-08-24T08:22:31.324Z,47.69
2017-08-24T08:25:03.302Z,47.87
2017-08-24T08:27:34.899Z,48.02
2017-08-24T08:30:06.259Z,48.08
2017-08-24T08:33:07.968Z,47.93
2017-08-24T08:35:39.616Z,47.08
2017-08-24T08:38:11.122Z,46.49
2017-08-24T08:40:42.415Z,46.75
2017-08-24T08:43:16.111Z,46.64
2017-08-24T08:45:47.437Z,45.49
2017-08-24T08:48:18.980Z,45.36
2017-08-24T08:50:50.353Z,44.62
2017-08-24T08:53:21.662Z,43.54
2017-08-24T08:55:53.681Z,43.54
2017-08-24T08:58:26.965Z,43.62
2017-08-24T09:00:58.860Z,43.88
2017-08-24T09:03:30.591Z,42.78
2017-08-24T09:06:02.666Z,42.19
2017-08-24T09:08:34.405Z,42.13
2017-08-24T09:11:05.783Z,41.47
2017-08-24T09:13:37.124Z,41.56
2017-08-24T09:16:08.515Z,41.14
2017-08-24T09:18:39.923Z,40.88
2017-08-24T09:21:12.802Z,40.68
2017-08-24T09:23:44.114Z,39.25
2017-08-24T09:26:15.507Z,39.10
2017-08-24T09:28:47.096Z,39.03
2017-08-24T09:31:18.407Z,37.91
2017-08-24T09:33:49.694Z,36.73
2017-08-24T09:36:21.010Z,35.32
2017-08-24T09:38:52.309Z,34.63
2017-08-24T09:41:24.667Z,34.24
2017-08-24T09:43:56.003Z,34.80
2017-08-24T09:46:28.660Z,34.98
2017-08-24T09:49:00.473Z,34.08
2017-08-24T09:51:31.855Z,33.27
2017-08-24T09:54:04.162Z,32.48
2017-08-24T09:56:35.468Z,31.41
2017-08-24T09:59:07.011Z,30.64
2017-08-24T10:01:38.785Z,30.01
2017-08-24T10:04:10.733Z,30.48
2017-08-24T10:06:42.041Z,29.82
2017-08-24T10:09:13.759Z,28.92
2017-08-24T10:11:45.182Z,30.35
2017-08-24T10:14:16.855Z,31.18
2017-08-24T10:16:48.774Z,31.13
2017-08-24T10:19:20.246Z,30.77
2017-08-24T10:21:51.918Z,29.73
2017-08-24T10:24:23.431Z,27.92
2017-08-24T10:26:55.006Z,25.96
2017-08-24T10:29:27.816Z,25.29
2017-08-24T10:31:59.061Z,24.43
2017-08-24T10:34:30.412Z,23.59
2017-08-24T10:37:02.076Z,24.17
2017-08-24T10:39:33.416Z,23.88
2017-08-24T10:42:05.775Z,23.19
2017-08-24T10:44:37.119Z,22.54
2017-08-24T10:47:08.435Z,22.18
2017-08-24T10:49:40.068Z,20.99
2017-08-24T10:52:11.444Z,20.16
2017-08-24T10:54:43.260Z,20.16
2017-08-24T10:57:14.581Z,19.89
2017-08-24T10:59:45.859Z,22.89
2017-08-24T11:02:19.538Z,20.32
2017-08-24T11:04:51.027Z,22.48
2017-08-24T11:07:24.041Z,22.77
2017-08-24T11:10:13.219Z,28.02
2017-08-24T11:12:50.533Z,23.26
2017-08-24T11:15:22.261Z,23.95
2017-08-24T11:17:53.876Z,28.79
2017-08-24T11:20:26.758Z,25.52
2017-08-24T11:22:58.277Z,28.31
2017-08-24T11:25:29.882Z,24.98
2017-08-24T11:28:01.326Z,27.23
2017-08-24T11:30:33.068Z,24.99
2017-08-24T11:33:04.924Z,23.06
2017-08-24T11:35:36.256Z,23.66
2017-08-24T11:38:07.670Z,25.06
2017-08-24T11:40:39.021Z,25.19
2017-08-24T11:43:10.704Z,23.26
2017-08-24T11:45:42.192Z,26.75
2017-08-24T11:48:13.588Z,23.72
2017-08-24T11:50:44.926Z,22.82
2017-08-24T11:53:16.556Z,25.33
2017-08-24T11:55:47.875Z,22.27
2017-08-24T11:58:19.210Z,22.25
2017-08-24T12:00:50.864Z,22.14
2017-08-24T12:03:22.493Z,22.52
2017-08-24T12:05:56.895Z,23.93
2017-08-24T12:08:30.837Z,21.51
2017-08-24T12:11:03.009Z,20.73
2017-08-24T12:13:34.610Z,21.08
2017-08-24T12:16:07.836Z,22.73
2017-08-24T12:18:39.378Z,23.69
2017-08-24T12:21:11.225Z,21.67
2017-08-24T12:23:44.194Z,20.11
2017-08-24T12:26:15.620Z,19.48
2017-08-24T12:28:47.669Z,19.07
2017-08-24T12:31:20.443Z,18.62
2017-08-24T12:33:51.993Z,19.50
2017-08-24T12:36:24.061Z,19.12
2017-08-24T12:39:05.307Z,14.78
2017-08-24T12:41:36.688Z,13.20
2017-08-24T12:44:09.034Z,14.23
2017-08-24T12:46:40.705Z,14.18
2017-08-24T12:49:12.337Z,16.58
2017-08-24T12:51:43.789Z,16.21
2017-08-24T12:54:16.189Z,15.81
2017-08-24T12:56:48.025Z,17.52
2017-08-24T12:59:19.647Z,18.24
2017-08-24T13:01:51.674Z,17.22
2017-08-24T13:04:23.706Z,16.90
2017-08-24T13:06:55.123Z,15.98
2017-08-24T13:09:28.492Z,17.48
2017-08-24T13:11:59.804Z,15.03
2017-08-24T13:14:32.645Z,14.47
2017-08-24T13:17:04.366Z,16.07
2017-08-24T13:19:35.693Z,15.97
2017-08-24T13:22:07.080Z,15.92
2017-08-24T13:24:38.703Z,17.23
2017-08-24T13:27:10.016Z,16.25
2017-08-24T13:29:41.366Z,15.15
2017-08-24T13:32:13.005Z,15.19
2017-08-24T13:34:44.345Z,15.84
2017-08-24T13:37:15.948Z,16.24
2017-08-24T13:39:47.394Z,16.87
2017-08-24T13:42:18.757Z,16.81
2017-08-24T13:44:50.337Z,18.33
2017-08-24T13:47:21.634Z,18.42
2017-08-24T13:49:53.018Z,19.89
2017-08-24T13:52:25.592Z,19.73
2017-08-24T13:54:57.033Z,20.34
2017-08-24T13:57:29.236Z,20.71
2017-08-24T14:00:01.043Z,19.29
2017-08-24T14:02:32.541Z,20.94
2017-08-24T14:05:05.069Z,22.14
2017-08-24T14:07:36.391Z,21.38
2017-08-24T14:10:07.981Z,18.71
2017-08-24T14:12:39.302Z,18.19
2017-08-24T14:15:10.599Z,19.51
2017-08-24T14:17:41.937Z,17.61
2017-08-24T14:20:13.869Z,15.94
2017-08-24T14:22:45.535Z,15.34
2017-08-24T14:25:16.849Z,16.40
2017-08-24T14:27:48.264Z,14.99
2017-08-24T14:30:19.944Z,15.39
2017-08-24T14:32:51.550Z,17.09
2017-08-24T14:35:23.125Z,18.64
2017-08-24T14:37:55.128Z,19.36
2017-08-24T14:40:27.460Z,19.23
2017-08-24T14:42:59.074Z,20.07
2017-08-24T14:45:30.389Z,20.32
2017-08-24T14:48:02.632Z,22.00
2017-08-24T14:50:34.274Z,21.84
2017-08-24T14:53:05.628Z,22.43
2017-08-24T14:55:36.958Z,22.52
2017-08-24T14:58:08.299Z,21.23
2017-08-24T15:00:39.655Z,20.86
2017-08-24T15:03:11.266Z,21.50
2017-08-24T15:05:42.657Z,18.53
2017-08-24T15:08:13.978Z,16.69
2017-08-24T15:10:45.638Z,15.18
2017-08-24T15:13:16.965Z,13.30
2017-08-24T15:15:48.314Z,12.54
2017-08-24T15:18:20.570Z,11.75
2017-08-24T15:20:51.993Z,11.05
2017-08-24T15:23:24.676Z,10.67
2017-08-24T15:25:56.404Z,10.22
2017-08-24T15:28:28.875Z,10.09
2017-08-24T15:31:00.696Z,10.25
2017-08-24T15:33:32.061Z,10.81
2017-08-24T15:36:04.418Z,10.78
2017-08-24T15:38:35.812Z,10.94
2017-08-24T15:41:07.139Z,10.70
2017-08-24T15:43:38.811Z,11.24
2017-08-24T15:46:10.134Z,10.69
2017-08-24T15:48:41.452Z,10.75
2017-08-24T15:51:15.317Z,11.10
2017-08-24T15:53:46.796Z,11.26
2017-08-24T15:56:18.370Z,11.87
2017-08-24T15:58:49.801Z,12.16
2017-08-24T16:01:21.299Z,11.63
2017-08-24T16:03:56.311Z,11.73
2017-08-24T16:06:30.301Z,11.71
2017-08-24T16:09:02.133Z,11.51
2017-08-24T16:11:34.009Z,12.45
2017-08-24T16:14:06.350Z,12.78
2017-08-24T16:16:37.733Z,14.71
2017-08-24T16:19:10.708Z,15.81
2017-08-24T16:21:42.268Z,17.49
2017-08-24T16:24:25.786Z,18.56
2017-08-24T16:26:57.462Z,19.64
2017-08-24T16:29:29.176Z,19.57
2017-08-24T16:32:01.816Z,18.53
2017-08-24T16:34:35.231Z,17.23
2017-08-24T16:37:06.859Z,16.90
2017-08-24T16:39:38.200Z,16.77
2017-08-24T16:42:09.627Z,16.49
2017-08-24T16:44:41.913Z,16.16
2017-08-24T16:47:13.459Z,16.68
2017-08-24T16:49:45.109Z,17.18
2017-08-24T16:52:16.461Z,18.37
2017-08-24T16:54:48.035Z,18.65
2017-08-24T16:57:19.784Z,19.32
2017-08-24T16:59:51.153Z,19.48
2017-08-24T17:02:22.492Z,19.24
2017-08-24T17:04:54.590Z,19.93
2017-08-24T17:07:26.281Z,20.74
2017-08-24T17:09:57.764Z,22.20
2017-08-24T17:12:29.434Z,24.11
2017-08-24T17:15:00.955Z,26.38
2017-08-24T17:17:35.014Z,27.42
2017-08-24T17:20:06.692Z,28.38
2017-08-24T17:22:38.702Z,29.16
2017-08-24T17:25:10.555Z,29.58
2017-08-24T17:27:42.349Z,30.38
2017-08-24T17:30:13.736Z,31.21
2017-08-24T17:32:45.311Z,31.96
2017-08-24T17:35:17.004Z,32.87
2017-08-24T17:37:49.660Z,33.35
2017-08-24T17:43:18.396Z,34.29
2017-08-24T17:45:55.573Z,34.65
2017-08-24T17:48:28.758Z,35.37
2017-08-24T17:51:00.070Z,35.58
2017-08-24T17:53:32.296Z,36.01
2017-08-24T17:56:05.507Z,36.42
2017-08-24T17:58:37.031Z,36.74
2017-08-24T18:01:13.944Z,37.29
2017-08-24T18:03:45.514Z,37.36
2017-08-24T18:06:17.795Z,37.78
2017-08-24T18:08:51.822Z,37.98
2017-08-24T18:11:23.360Z,38.29
2017-08-24T18:13:55.746Z,38.76
2017-08-24T18:16:27.205Z,39.14
2017-08-24T18:18:58.837Z,39.39
2017-08-24T18:21:36.612Z,39.37
2017-08-24T18:24:08.236Z,39.39
2017-08-24T18:26:39.793Z,39.58
2017-08-24T18:29:11.458Z,39.48
2017-08-24T18:31:42.855Z,39.46
2017-08-24T18:34:15.779Z,39.51
2017-08-24T18:36:47.412Z,39.75
2017-08-24T18:39:18.800Z,40.03
2017-08-24T18:41:50.479Z,40.26
2017-08-24T18:44:23.553Z,40.59
2017-08-24T18:46:54.952Z,40.47
2017-08-24T18:49:26.749Z,40.59
2017-08-24T18:51:58.051Z,40.51
2017-08-24T18:54:32.300Z,40.52
2017-08-24T18:57:04.931Z,40.82
2017-08-24T18:59:38.044Z,40.32
2017-08-24T19:02:09.349Z,40.15
2017-08-24T19:04:40.967Z,41.07
2017-08-24T19:07:12.311Z,41.13
2017-08-24T19:09:43.958Z,40.44
2017-08-24T19:12:16.017Z,40.46
2017-08-24T19:14:47.967Z,40.68
2017-08-24T19:17:20.685Z,40.47
2017-08-24T19:19:52.104Z,40.83
2017-08-24T19:22:24.050Z,40.89
2017-08-24T19:24:55.729Z,41.29
2017-08-24T19:27:27.356Z,41.39
2017-08-24T19:29:58.916Z,41.07
2017-08-24T19:32:33.061Z,41.24
2017-08-24T19:35:09.766Z,40.70
2017-08-24T19:37:41.772Z,41.49
2017-08-24T19:40:13.132Z,40.39
2017-08-24T19:42:44.467Z,39.96
2017-08-24T19:45:16.686Z,40.60
2017-08-24T19:47:48.004Z,42.82
2017-08-24T19:50:19.876Z,40.73
2017-08-24T19:52:51.321Z,39.98
2017-08-24T19:55:22.831Z,40.72
2017-08-24T19:57:54.624Z,41.39
2017-08-24T20:00:26.045Z,41.51
2017-08-24T20:02:57.535Z,41.45
2017-08-24T20:05:29.142Z,40.63
2017-08-24T20:08:00.465Z,41.02
2017-08-24T20:10:33.144Z,40.97
2017-08-24T20:13:05.789Z,40.68
2017-08-24T20:16:39.943Z,40.64
2017-08-24T20:19:11.521Z,40.47
2017-08-24T20:21:42.929Z,40.69
2017-08-24T20:24:14.305Z,42.03
2017-08-24T20:26:45.703Z,42.20
2017-08-24T20:29:17.355Z,41.73
2017-08-24T20:31:49.209Z,42.10
2017-08-24T20:34:20.513Z,41.79
2017-08-24T20:36:52.552Z,41.71
2017-08-24T20:39:24.380Z,41.25
2017-08-24T20:41:55.824Z,40.95
2017-08-24T20:44:27.572Z,41.11
2017-08-24T20:46:59.052Z,41.51
2017-08-24T20:49:31.487Z,41.77
2017-08-24T20:52:05.986Z,42.92
2017-08-24T20:54:43.157Z,42.49
2017-08-24T20:57:16.114Z,42.37
2017-08-24T20:59:48.312Z,42.96
2017-08-24T21:05:45.125Z,43.29
2017-08-24T21:08:34.319Z,44.58
2017-08-24T21:11:22.680Z,45.05
2017-08-24T21:14:11.264Z,44.98
2017-08-24T21:16:59.023Z,44.32
2017-08-24T21:19:46.756Z,44.37
2017-08-24T21:22:24.285Z,44.21
2017-08-24T21:24:56.837Z,43.08
2017-08-24T21:27:31.115Z,45.19
2017-08-24T21:30:07.089Z,44.11
2017-08-24T21:32:44.441Z,44.80
2017-08-24T21:35:16.128Z,44.25
2017-08-24T21:37:55.407Z,44.28
2017-08-24T21:40:31.675Z,44.87
2017-08-24T21:43:06.862Z,44.98
2017-08-24T21:45:42.001Z,44.50
2017-08-24T21:48:30.870Z,44.89
2017-08-24T21:51:05.996Z,44.40
2017-08-24T21:53:39.747Z,44.34
2017-08-24T21:56:13.386Z,44.45
2017-08-24T21:58:46.655Z,44.44
2017-08-24T22:01:20.927Z,43.82
2017-08-24T22:03:53.294Z,44.71
2017-08-24T22:09:10.138Z,44.68
2017-08-24T22:11:41.554Z,44.21
2017-08-24T22:14:16.569Z,44.54
2017-08-24T22:16:49.078Z,45.35
2017-08-24T22:19:21.458Z,44.80
2017-08-24T22:21:52.795Z,44.24
2017-08-24T22:24:27.103Z,44.98
2017-08-24T22:26:59.888Z,45.48
2017-08-24T22:29:32.637Z,46.05
2017-08-24T22:32:10.088Z,45.38
2017-08-24T22:34:41.888Z,46.47
2017-08-24T22:37:15.095Z,46.70
2017-08-24T22:39:46.816Z,46.18
2017-08-24T22:42:18.514Z,44.83
2017-08-24T22:44:49.937Z,44.40
2017-08-24T22:47:27.871Z,44.83
2017-08-24T22:49:59.573Z,46.39
2017-08-24T22:52:32.636Z,47.79
2017-08-24T22:57:10.617Z,46.66
2017-08-24T23:01:49.409Z,45.92
2017-08-24T23:04:20.852Z,44.92
2017-08-24T23:06:52.196Z,46.40
2017-08-24T23:09:25.961Z,47.91
2017-08-24T23:11:57.940Z,48.13
2017-08-24T23:14:30.800Z,46.08
2017-08-24T23:17:03.676Z,45.76
2017-08-24T23:19:35.285Z,45.84
2017-08-24T23:22:08.090Z,45.63
2017-08-24T23:24:40.340Z,46.27
2017-08-24T23:27:12.676Z,46.17
2017-08-24T23:29:43.968Z,47.61
2017-08-24T23:32:15.882Z,48.05
2017-08-24T23:34:47.223Z,47.73
2017-08-24T23:37:18.665Z,47.35
2017-08-24T23:39:52.457Z,47.52
2017-08-24T23:42:24.727Z,47.39
2017-08-24T23:44:56.974Z,46.83
2017-08-24T23:47:31.506Z,46.79
2017-08-24T23:50:06.835Z,47.03
2017-08-24T23:52:38.566Z,46.87
2017-08-24T23:55:11.787Z,46.62
2017-08-24T23:57:43.852Z,46.59
